createdAt,value
2016-10-22T00:00:46.181Z,98.72
2016-10-22T00:01:56.873Z,98.62
2016-10-22T00:03:07.576Z,98.72
2016-10-22T00:04:18.276Z,98.33
2016-10-22T00:05:29.010Z,98.82
2016-10-22T00:06:39.730Z,99.1
2016-10-22T00:07:50.427Z,98.91
2016-10-22T00:09:01.138Z,98.91
2016-10-22T00:10:11.858Z,98.72
2016-10-22T00:11:22.548Z,99.1
2016-10-22T00:12:33.244Z,98.91
2016-10-22T00:13:43.954Z,99.1
2016-10-22T00:14:54.659Z,98.91
2016-10-22T00:16:05.337Z,98.43
2016-10-22T00:17:16.042Z,98.96
2016-10-22T00:18:26.824Z,98.19
2016-10-22T00:19:37.529Z,98.77
2016-10-22T00:20:48.237Z,98.72
2016-10-22T00:21:58.937Z,99.1
2016-10-22T00:23:09.649Z,98.82
2016-10-22T00:24:20.338Z,99.01
2016-10-22T00:25:31.030Z,98.72
2016-10-22T00:26:41.744Z,98.82
2016-10-22T00:27:52.450Z,98.33
2016-10-22T00:29:03.138Z,98.72
2016-10-22T00:30:13.880Z,99.01
2016-10-22T00:31:24.587Z,98.53
2016-10-22T00:32:35.285Z,98.72
2016-10-22T00:33:45.971Z,99.2
2016-10-22T00:34:56.692Z,99.58
2016-10-22T00:36:07.422Z,99.58
2016-10-22T00:37:18.152Z,99.87
2016-10-22T00:38:28.848Z,99.68
2016-10-22T00:39:39.556Z,99.96
2016-10-22T00:40:50.263Z,99.39
2016-10-22T00:42:00.947Z,99.77
2016-10-22T00:43:11.663Z,99.96
2016-10-22T00:44:22.366Z,99.99
2016-10-22T00:45:33.064Z,99.99
2016-10-22T00:46:44.268Z,99.96
2016-10-22T00:47:54.962Z,99.99
2016-10-22T00:49:05.708Z,99.99
2016-10-22T00:50:16.439Z,99.99
2016-10-22T00:51:27.164Z,99.99
2016-10-22T00:52:38.379Z,99.99
2016-10-22T00:54:20.759Z,99.99
2016-10-22T00:55:31.473Z,99.99
2016-10-22T00:56:42.218Z,99.99
2016-10-22T00:57:52.930Z,99.99
2016-10-22T00:59:03.674Z,99.99
2016-10-22T01:00:14.404Z,99.99
2016-10-22T01:01:25.151Z,99.99
2016-10-22T01:02:35.861Z,99.99
2016-10-22T01:03:46.549Z,99.99
2016-10-22T01:04:57.288Z,99.99
2016-10-22T01:06:08.002Z,99.99
2016-10-22T01:07:18.709Z,99.99
2016-10-22T01:08:29.419Z,99.99
2016-10-22T01:09:40.113Z,99.99
2016-10-22T01:10:50.817Z,99.99
2016-10-22T01:12:01.520Z,99.99
2016-10-22T01:13:12.232Z,99.99
2016-10-22T01:14:22.935Z,99.99
2016-10-22T01:15:33.669Z,99.99
2016-10-22T01:16:44.379Z,99.99
2016-10-22T01:17:55.070Z,99.99
2016-10-22T01:19:05.781Z,99.99
2016-10-22T01:20:16.459Z,99.99
2016-10-22T01:21:27.153Z,99.99
2016-10-22T01:22:37.834Z,99.99
2016-10-22T01:23:48.513Z,99.99
2016-10-22T01:24:59.244Z,99.99
2016-10-22T01:26:09.949Z,99.99
2016-10-22T01:27:20.675Z,99.99
2016-10-22T01:28:31.404Z,99.99
2016-10-22T01:29:42.132Z,99.99
2016-10-22T01:30:52.878Z,99.99
2016-10-22T01:32:03.585Z,99.99
2016-10-22T01:33:14.313Z,99.99
2016-10-22T01:34:25.041Z,99.99
2016-10-22T01:35:35.793Z,99.99
2016-10-22T01:36:46.492Z,99.99
2016-10-22T01:37:57.685Z,99.99
2016-10-22T01:39:08.860Z,99.99
2016-10-22T01:40:19.536Z,99.99
2016-10-22T01:41:30.236Z,99.99
2016-10-22T01:42:40.963Z,99.99
2016-10-22T01:43:51.663Z,99.99
2016-10-22T01:45:02.371Z,99.99
2016-10-22T01:46:13.098Z,99.99
2016-10-22T01:47:23.815Z,99.99
2016-10-22T01:48:34.532Z,99.99
2016-10-22T01:49:45.244Z,99.99
2016-10-22T01:50:55.984Z,99.99
2016-10-22T01:52:06.673Z,99.99
2016-10-22T01:53:17.369Z,99.99
2016-10-22T01:54:28.095Z,99.99
2016-10-22T01:55:38.794Z,99.99
2016-10-22T01:56:50.041Z,99.99
2016-10-22T01:58:00.736Z,99.99
2016-10-22T01:59:11.449Z,99.99
2016-10-22T02:00:22.167Z,99.99
2016-10-22T02:01:32.869Z,99.99
2016-10-22T02:02:43.607Z,99.99
2016-10-22T02:03:54.826Z,99.99
2016-10-22T02:05:05.543Z,99.99
2016-10-22T02:06:16.787Z,99.99
2016-10-22T02:07:27.515Z,99.99
2016-10-22T02:08:38.248Z,99.99
2016-10-22T02:09:48.966Z,99.99
2016-10-22T02:10:59.699Z,99.99
2016-10-22T02:12:10.402Z,99.99
2016-10-22T02:13:21.149Z,99.99
2016-10-22T02:14:31.825Z,99.99
2016-10-22T02:15:42.503Z,99.99
2016-10-22T02:16:53.194Z,99.99
2016-10-22T02:18:03.906Z,99.99
2016-10-22T02:19:14.659Z,99.99
2016-10-22T02:20:25.343Z,99.99
2016-10-22T02:21:36.077Z,99.99
2016-10-22T02:22:46.819Z,99.99
2016-10-22T02:23:57.515Z,99.99
2016-10-22T02:25:08.251Z,99.99
2016-10-22T02:26:18.980Z,99.99
2016-10-22T02:27:30.201Z,99.99
2016-10-22T02:28:40.914Z,99.99
2016-10-22T02:29:51.643Z,99.99
2016-10-22T02:31:02.368Z,99.99
2016-10-22T02:32:13.078Z,99.99
2016-10-22T02:33:23.774Z,99.99
2016-10-22T02:34:34.496Z,99.99
2016-10-22T02:35:45.243Z,99.99
2016-10-22T02:36:55.951Z,99.99
2016-10-22T02:38:07.208Z,99.99
2016-10-22T02:39:17.919Z,99.99
2016-10-22T02:40:28.629Z,99.99
2016-10-22T02:41:39.868Z,99.99
2016-10-22T02:42:50.624Z,99.99
2016-10-22T02:44:01.320Z,99.99
2016-10-22T02:45:12.030Z,99.99
2016-10-22T02:46:22.771Z,99.99
2016-10-22T02:47:33.476Z,99.99
2016-10-22T02:48:44.185Z,99.99
2016-10-22T02:49:54.897Z,99.99
2016-10-22T02:51:05.604Z,99.99
2016-10-22T02:52:16.324Z,99.99
2016-10-22T02:53:27.029Z,99.99
2016-10-22T02:54:37.713Z,99.99
2016-10-22T02:55:48.422Z,99.99
2016-10-22T02:56:59.171Z,99.99
2016-10-22T02:58:09.867Z,99.99
2016-10-22T02:59:20.567Z,99.99
2016-10-22T03:00:31.309Z,99.99
2016-10-22T03:01:42.510Z,99.99
2016-10-22T03:02:53.232Z,99.99
2016-10-22T03:04:03.931Z,99.99
2016-10-22T03:05:14.611Z,99.99
2016-10-22T03:06:25.335Z,99.99
2016-10-22T03:07:36.068Z,99.99
2016-10-22T03:08:47.305Z,99.99
2016-10-22T03:09:57.990Z,99.99
2016-10-22T03:11:08.671Z,99.99
2016-10-22T03:12:19.379Z,99.99
2016-10-22T03:13:30.069Z,99.99
2016-10-22T03:14:40.758Z,99.99
2016-10-22T03:15:51.467Z,99.99
2016-10-22T03:17:02.177Z,99.99
2016-10-22T03:18:12.895Z,99.99
2016-10-22T03:19:23.579Z,99.99
2016-10-22T03:20:34.327Z,99.99
2016-10-22T03:21:45.109Z,99.99
2016-10-22T03:22:55.870Z,99.99
2016-10-22T03:24:06.545Z,99.99
2016-10-22T03:25:17.387Z,99.99
2016-10-22T03:26:28.126Z,99.99
2016-10-22T03:27:38.818Z,99.99
2016-10-22T03:28:49.526Z,99.99
2016-10-22T03:30:00.758Z,99.99
2016-10-22T03:31:11.945Z,99.99
2016-10-22T03:32:22.671Z,99.99
2016-10-22T03:33:33.402Z,99.99
2016-10-22T03:34:45.196Z,99.99
2016-10-22T03:35:56.969Z,99.99
2016-10-22T03:37:08.202Z,99.99
2016-10-22T03:38:19.461Z,99.99
2016-10-22T03:39:30.163Z,99.99
2016-10-22T03:40:40.864Z,99.99
2016-10-22T03:41:51.568Z,99.99
2016-10-22T03:43:02.277Z,99.99
2016-10-22T03:44:12.990Z,99.99
2016-10-22T03:45:24.204Z,99.99
2016-10-22T03:46:34.893Z,99.99
2016-10-22T03:47:46.141Z,99.99
2016-10-22T03:48:57.372Z,99.99
2016-10-22T03:50:09.663Z,99.99
2016-10-22T03:51:20.865Z,99.99
2016-10-22T03:52:33.116Z,99.99
2016-10-22T03:53:43.830Z,99.99
2016-10-22T03:54:54.557Z,99.99
2016-10-22T03:56:05.297Z,99.99
2016-10-22T03:57:16.007Z,99.99
2016-10-22T03:58:26.730Z,99.99
2016-10-22T03:59:37.430Z,99.99
2016-10-22T04:00:48.640Z,99.99
2016-10-22T04:01:59.381Z,99.99
2016-10-22T04:03:10.087Z,99.99
2016-10-22T04:04:20.798Z,99.99
2016-10-22T04:05:32.559Z,99.99
2016-10-22T04:06:43.269Z,99.99
2016-10-22T04:07:54.002Z,99.99
2016-10-22T04:09:04.712Z,99.99
2016-10-22T04:10:15.938Z,99.99
2016-10-22T04:11:26.647Z,99.99
2016-10-22T04:12:37.927Z,99.99
2016-10-22T04:13:48.650Z,99.99
2016-10-22T04:14:59.895Z,99.99
2016-10-22T04:16:10.616Z,99.99
2016-10-22T04:17:21.836Z,99.99
2016-10-22T04:18:33.072Z,99.99
2016-10-22T04:19:44.302Z,99.99
2016-10-22T04:20:55.007Z,99.99
2016-10-22T04:22:05.740Z,99.99
2016-10-22T04:23:16.451Z,99.99
2016-10-22T04:24:27.175Z,99.99
2016-10-22T04:25:37.871Z,99.99
2016-10-22T04:26:48.579Z,99.99
2016-10-22T04:27:59.294Z,99.99
2016-10-22T04:29:10.508Z,99.99
2016-10-22T04:30:21.243Z,99.99
2016-10-22T04:31:31.941Z,99.99
2016-10-22T04:32:42.690Z,99.99
2016-10-22T04:33:53.925Z,99.99
2016-10-22T04:35:04.613Z,99.99
2016-10-22T04:36:15.304Z,99.99
2016-10-22T04:37:26.523Z,99.99
2016-10-22T04:38:37.245Z,99.99
2016-10-22T04:39:47.942Z,99.99
2016-10-22T04:40:58.660Z,99.99
2016-10-22T04:42:10.414Z,99.99
2016-10-22T04:43:21.622Z,99.99
2016-10-22T04:44:32.303Z,99.99
2016-10-22T04:45:43.001Z,99.99
2016-10-22T04:46:54.202Z,99.99
2016-10-22T04:48:04.921Z,99.99
2016-10-22T04:49:16.164Z,99.99
2016-10-22T04:50:26.851Z,99.99
2016-10-22T04:51:37.594Z,99.99
2016-10-22T04:52:48.841Z,99.99
2016-10-22T04:53:59.556Z,99.99
2016-10-22T04:55:10.793Z,99.99
2016-10-22T04:56:21.505Z,99.99
2016-10-22T04:57:32.196Z,99.99
2016-10-22T04:58:43.407Z,99.99
2016-10-22T04:59:54.099Z,99.99
2016-10-22T05:01:04.825Z,99.99
2016-10-22T05:02:15.543Z,99.99
2016-10-22T05:03:26.790Z,99.99
2016-10-22T05:04:37.504Z,99.99
2016-10-22T05:05:48.698Z,99.99
2016-10-22T05:06:59.441Z,99.99
2016-10-22T05:08:10.142Z,99.99
2016-10-22T05:09:20.867Z,99.99
2016-10-22T05:10:32.102Z,99.99
2016-10-22T05:11:42.829Z,99.99
2016-10-22T05:12:53.520Z,99.99
2016-10-22T05:14:04.219Z,99.99
2016-10-22T05:15:14.903Z,99.99
2016-10-22T05:16:25.616Z,99.99
2016-10-22T05:17:36.323Z,99.99
2016-10-22T05:18:47.556Z,99.99
2016-10-22T05:19:58.244Z,99.99
2016-10-22T05:21:08.921Z,99.99
2016-10-22T05:22:19.609Z,99.99
2016-10-22T05:23:30.326Z,99.99
2016-10-22T05:24:41.021Z,99.99
2016-10-22T05:25:51.746Z,99.99
2016-10-22T05:27:02.453Z,99.99
2016-10-22T05:28:13.137Z,99.99
2016-10-22T05:29:23.881Z,99.99
2016-10-22T05:30:34.590Z,99.99
2016-10-22T05:31:45.304Z,99.99
2016-10-22T05:32:55.998Z,99.99
2016-10-22T05:34:06.698Z,99.99
2016-10-22T05:35:17.414Z,99.99
2016-10-22T05:36:28.102Z,99.99
2016-10-22T05:37:38.835Z,99.99
2016-10-22T05:38:49.586Z,99.99
2016-10-22T05:40:00.310Z,99.99
2016-10-22T05:41:11.036Z,99.99
2016-10-22T05:42:21.771Z,99.99
2016-10-22T05:43:32.517Z,99.99
2016-10-22T05:44:43.282Z,99.99
2016-10-22T05:45:53.994Z,99.99
2016-10-22T05:47:04.717Z,99.99
2016-10-22T05:48:15.448Z,99.99
2016-10-22T05:49:26.148Z,99.99
2016-10-22T05:50:36.830Z,99.99
2016-10-22T05:51:47.567Z,99.99
2016-10-22T05:52:58.283Z,99.99
2016-10-22T05:54:08.974Z,99.99
2016-10-22T05:55:19.675Z,99.99
2016-10-22T05:56:30.366Z,99.99
2016-10-22T05:57:41.072Z,99.99
2016-10-22T05:58:51.772Z,99.99
2016-10-22T06:00:02.466Z,99.99
2016-10-22T06:01:13.169Z,99.99
2016-10-22T06:02:23.910Z,99.99
2016-10-22T06:03:34.768Z,99.99
2016-10-22T06:04:46.295Z,99.99
2016-10-22T06:05:56.997Z,99.99
2016-10-22T06:07:07.709Z,99.99
2016-10-22T06:08:18.402Z,99.99
2016-10-22T06:09:29.132Z,99.99
2016-10-22T06:10:39.889Z,99.99
2016-10-22T06:11:50.828Z,99.99
2016-10-22T06:13:01.583Z,99.99
2016-10-22T06:14:12.293Z,99.99
2016-10-22T06:15:22.999Z,99.99
2016-10-22T06:16:33.713Z,99.99
2016-10-22T06:17:44.408Z,99.99
2016-10-22T06:18:55.147Z,99.99
2016-10-22T06:20:05.890Z,99.99
2016-10-22T06:21:16.633Z,99.99
2016-10-22T06:22:27.399Z,99.99
2016-10-22T06:23:38.123Z,99.99
2016-10-22T06:24:48.850Z,99.99
2016-10-22T06:25:59.573Z,99.99
2016-10-22T06:27:10.263Z,99.99
2016-10-22T06:28:20.963Z,99.99
2016-10-22T06:29:31.694Z,99.99
2016-10-22T06:30:42.445Z,99.99
2016-10-22T06:31:53.181Z,99.99
2016-10-22T06:33:03.887Z,99.99
2016-10-22T06:34:14.616Z,99.99
2016-10-22T06:35:25.325Z,99.99
2016-10-22T06:36:36.022Z,99.99
2016-10-22T06:37:46.761Z,99.99
2016-10-22T06:38:57.486Z,99.99
2016-10-22T06:40:08.183Z,99.99
2016-10-22T06:41:18.867Z,99.99
2016-10-22T06:42:29.564Z,99.99
2016-10-22T06:43:40.272Z,99.99
2016-10-22T06:44:50.969Z,99.99
2016-10-22T06:46:01.678Z,99.99
2016-10-22T06:47:12.380Z,99.99
2016-10-22T06:48:23.076Z,99.99
2016-10-22T06:49:33.815Z,99.99
2016-10-22T06:50:44.517Z,99.99
2016-10-22T06:51:55.246Z,99.99
2016-10-22T06:53:05.960Z,99.99
2016-10-22T06:54:16.652Z,99.99
2016-10-22T06:55:27.362Z,99.99
2016-10-22T06:56:38.078Z,99.99
2016-10-22T06:57:48.809Z,99.99
2016-10-22T06:58:59.511Z,99.99
2016-10-22T07:00:10.265Z,99.99
2016-10-22T07:01:20.977Z,99.99
2016-10-22T07:02:31.703Z,99.99
2016-10-22T07:03:42.941Z,99.99
2016-10-22T07:04:53.687Z,99.99
2016-10-22T07:06:04.390Z,99.99
2016-10-22T07:07:15.081Z,99.99
2016-10-22T07:08:25.774Z,99.99
2016-10-22T07:09:36.456Z,99.99
2016-10-22T07:10:47.162Z,99.99
2016-10-22T07:11:57.880Z,99.99
2016-10-22T07:13:08.585Z,99.99
2016-10-22T07:14:19.303Z,99.99
2016-10-22T07:15:29.997Z,99.99
2016-10-22T07:16:40.730Z,99.99
2016-10-22T07:17:51.481Z,99.99
2016-10-22T07:19:02.176Z,99.99
2016-10-22T07:20:12.876Z,99.99
2016-10-22T07:21:23.580Z,99.99
2016-10-22T07:22:34.286Z,99.99
2016-10-22T07:23:44.990Z,99.99
2016-10-22T07:24:55.713Z,99.99
2016-10-22T07:26:06.451Z,99.99
2016-10-22T07:27:17.177Z,99.99
2016-10-22T07:28:27.888Z,99.99
2016-10-22T07:29:38.626Z,99.99
2016-10-22T07:30:49.319Z,99.99
2016-10-22T07:32:00.024Z,99.99
2016-10-22T07:33:11.263Z,99.99
2016-10-22T07:34:21.995Z,99.99
2016-10-22T07:35:32.716Z,99.99
2016-10-22T07:36:43.439Z,99.99
2016-10-22T07:37:54.109Z,99.99
2016-10-22T07:39:04.799Z,99.99
2016-10-22T07:40:15.493Z,99.99
2016-10-22T07:41:26.194Z,99.99
2016-10-22T07:42:37.471Z,99.99
2016-10-22T07:43:48.177Z,99.99
2016-10-22T07:44:58.871Z,99.99
2016-10-22T07:46:09.590Z,99.99
2016-10-22T07:47:20.282Z,99.99
2016-10-22T07:48:30.962Z,99.99
2016-10-22T07:49:41.693Z,99.99
2016-10-22T07:50:52.389Z,99.99
2016-10-22T07:52:03.102Z,99.99
2016-10-22T07:53:13.821Z,99.99
2016-10-22T07:54:24.571Z,99.99
2016-10-22T07:55:35.288Z,99.99
2016-10-22T07:56:46.009Z,99.99
2016-10-22T07:57:56.724Z,99.99
2016-10-22T07:59:07.512Z,99.99
2016-10-22T08:00:18.227Z,99.99
2016-10-22T08:01:28.965Z,99.99
2016-10-22T08:02:39.680Z,99.99
2016-10-22T08:03:50.377Z,99.99
2016-10-22T08:05:01.077Z,99.99
2016-10-22T08:06:11.778Z,99.99
2016-10-22T08:07:22.471Z,99.99
2016-10-22T08:08:33.160Z,99.99
2016-10-22T08:09:43.898Z,99.99
2016-10-22T08:10:54.582Z,99.99
2016-10-22T08:12:05.290Z,99.99
2016-10-22T08:13:15.995Z,99.99
2016-10-22T08:14:26.731Z,99.99
2016-10-22T08:15:37.465Z,99.99
2016-10-22T08:16:48.181Z,99.99
2016-10-22T08:17:59.396Z,99.99
2016-10-22T08:19:10.147Z,99.99
2016-10-22T08:20:20.859Z,99.99
2016-10-22T08:21:31.542Z,99.99
2016-10-22T08:22:42.254Z,99.99
2016-10-22T08:23:53.001Z,99.99
2016-10-22T08:25:03.699Z,99.99
2016-10-22T08:26:14.386Z,99.99
2016-10-22T08:27:25.096Z,99.99
2016-10-22T08:28:36.298Z,99.99
2016-10-22T08:29:47.003Z,99.99
2016-10-22T08:30:57.690Z,99.99
2016-10-22T08:32:08.373Z,99.99
2016-10-22T08:33:19.082Z,99.99
2016-10-22T08:34:29.786Z,99.99
2016-10-22T08:35:40.492Z,99.99
2016-10-22T08:36:51.192Z,99.99
2016-10-22T08:38:01.953Z,99.99
2016-10-22T08:39:12.635Z,99.99
2016-10-22T08:40:23.357Z,99.99
2016-10-22T08:41:34.053Z,99.99
2016-10-22T08:42:44.778Z,99.99
2016-10-22T08:43:56.004Z,99.99
2016-10-22T08:45:06.741Z,99.99
2016-10-22T08:46:17.488Z,99.99
2016-10-22T08:47:28.212Z,99.99
2016-10-22T08:48:38.934Z,99.99
2016-10-22T08:49:49.692Z,99.99
2016-10-22T08:51:00.430Z,99.99
2016-10-22T08:52:11.122Z,99.99
2016-10-22T08:53:21.822Z,99.99
2016-10-22T08:54:32.535Z,99.99
2016-10-22T08:55:43.243Z,99.99
2016-10-22T08:56:54.021Z,99.99
2016-10-22T08:58:04.721Z,99.99
2016-10-22T08:59:15.423Z,99.99
2016-10-22T09:00:26.149Z,99.99
2016-10-22T09:01:36.865Z,99.99
2016-10-22T09:02:47.568Z,99.99
2016-10-22T09:03:58.255Z,99.99
2016-10-22T09:05:08.984Z,99.99
2016-10-22T09:06:19.720Z,99.99
2016-10-22T09:07:30.437Z,99.99
2016-10-22T09:08:41.140Z,99.99
2016-10-22T09:09:51.844Z,99.99
2016-10-22T09:11:02.523Z,99.99
2016-10-22T09:12:13.227Z,99.99
2016-10-22T09:13:23.936Z,99.99
2016-10-22T09:14:34.654Z,99.99
2016-10-22T09:15:45.358Z,99.99
2016-10-22T09:16:56.060Z,99.99
2016-10-22T09:18:06.743Z,99.99
2016-10-22T09:19:17.440Z,99.99
2016-10-22T09:20:28.149Z,99.99
2016-10-22T09:21:38.838Z,99.99
2016-10-22T09:22:49.555Z,99.99
2016-10-22T09:24:00.265Z,99.99
2016-10-22T09:25:10.961Z,99.99
2016-10-22T09:26:21.667Z,99.99
2016-10-22T09:27:32.386Z,99.99
2016-10-22T09:28:43.095Z,99.99
2016-10-22T09:29:53.801Z,99.99
2016-10-22T09:31:04.521Z,99.99
2016-10-22T09:32:15.255Z,99.99
2016-10-22T09:33:25.963Z,99.99
2016-10-22T09:34:36.662Z,99.99
2016-10-22T09:35:47.343Z,99.99
2016-10-22T09:36:58.293Z,99.99
2016-10-22T09:38:09.000Z,99.99
2016-10-22T09:39:19.717Z,99.99
2016-10-22T09:40:30.419Z,99.99
2016-10-22T09:41:41.125Z,99.99
2016-10-22T09:42:51.828Z,99.99
2016-10-22T09:44:02.523Z,99.99
2016-10-22T09:45:13.225Z,99.99
2016-10-22T09:46:23.915Z,99.99
2016-10-22T09:47:34.625Z,99.99
2016-10-22T09:48:45.317Z,99.99
2016-10-22T09:49:56.036Z,99.99
2016-10-22T09:51:06.753Z,99.99
2016-10-22T09:52:17.974Z,99.99
2016-10-22T09:53:28.670Z,99.99
2016-10-22T09:54:39.361Z,99.99
2016-10-22T09:55:50.072Z,99.99
2016-10-22T09:57:00.770Z,99.99
2016-10-22T09:58:11.472Z,99.99
2016-10-22T09:59:22.170Z,99.99
2016-10-22T10:00:32.924Z,99.99
2016-10-22T10:01:43.620Z,99.99
2016-10-22T10:02:54.332Z,99.99
2016-10-22T10:04:05.037Z,99.99
2016-10-22T10:05:16.244Z,99.99
2016-10-22T10:06:27.420Z,99.99
2016-10-22T10:07:38.122Z,99.99
2016-10-22T10:08:48.822Z,99.99
2016-10-22T10:10:00.037Z,99.99
2016-10-22T10:11:10.716Z,99.99
2016-10-22T10:12:21.422Z,99.99
2016-10-22T10:13:32.146Z,99.99
2016-10-22T10:14:42.843Z,99.99
2016-10-22T10:15:53.574Z,99.99
2016-10-22T10:17:04.292Z,99.99
2016-10-22T10:18:15.047Z,99.99
2016-10-22T10:19:25.786Z,99.99
2016-10-22T10:20:36.512Z,99.99
2016-10-22T10:21:47.203Z,99.99
2016-10-22T10:22:57.919Z,99.99
2016-10-22T10:24:08.632Z,99.99
2016-10-22T10:25:19.330Z,99.99
2016-10-22T10:26:30.020Z,99.99
2016-10-22T10:27:40.718Z,99.99
2016-10-22T10:28:51.399Z,99.99
2016-10-22T10:30:02.120Z,99.99
2016-10-22T10:31:12.843Z,99.99
2016-10-22T10:32:23.565Z,99.99
2016-10-22T10:33:34.282Z,99.99
2016-10-22T10:34:45.479Z,99.99
2016-10-22T10:35:56.175Z,99.99
2016-10-22T10:37:06.867Z,99.99
2016-10-22T10:38:17.566Z,99.99
2016-10-22T10:39:28.262Z,99.99
2016-10-22T10:40:38.973Z,99.99
2016-10-22T10:41:50.177Z,99.99
2016-10-22T10:43:00.880Z,99.99
2016-10-22T10:44:11.620Z,99.99
2016-10-22T10:45:22.328Z,99.99
2016-10-22T10:46:33.031Z,99.99
2016-10-22T10:47:44.233Z,99.99
2016-10-22T10:48:54.940Z,99.99
2016-10-22T10:50:05.675Z,99.99
2016-10-22T10:51:16.395Z,99.99
2016-10-22T10:52:27.133Z,99.99
2016-10-22T10:53:37.861Z,99.99
2016-10-22T10:54:48.598Z,99.99
2016-10-22T10:55:59.348Z,99.99
2016-10-22T10:57:10.037Z,99.99
2016-10-22T10:58:20.723Z,99.99
2016-10-22T10:59:31.407Z,99.99
2016-10-22T11:00:42.114Z,99.99
2016-10-22T11:01:52.901Z,99.99
2016-10-22T11:03:03.634Z,99.99
2016-10-22T11:04:14.327Z,99.99
2016-10-22T11:05:25.046Z,99.99
2016-10-22T11:06:35.737Z,99.99
2016-10-22T11:07:46.930Z,99.99
2016-10-22T11:08:57.637Z,99.99
2016-10-22T11:10:08.392Z,99.99
2016-10-22T11:11:19.090Z,99.99
2016-10-22T11:12:29.798Z,99.99
2016-10-22T11:13:41.014Z,99.99
2016-10-22T11:14:51.728Z,99.99
2016-10-22T11:16:02.469Z,99.99
2016-10-22T11:17:13.182Z,99.99
2016-10-22T11:18:23.880Z,99.99
2016-10-22T11:19:34.615Z,99.99
2016-10-22T11:20:45.318Z,99.99
2016-10-22T11:21:56.011Z,99.99
2016-10-22T11:23:06.730Z,99.99
2016-10-22T11:24:17.442Z,99.99
2016-10-22T11:25:28.182Z,99.99
2016-10-22T11:26:38.887Z,99.99
2016-10-22T11:27:49.600Z,99.99
2016-10-22T11:29:00.290Z,99.44
2016-10-22T11:30:10.976Z,99.54
2016-10-22T11:31:21.718Z,99.44
2016-10-22T11:32:32.643Z,98.67
2016-10-22T11:33:43.358Z,98.77
2016-10-22T11:34:54.073Z,98.77
2016-10-22T11:36:04.806Z,98.77
2016-10-22T11:37:15.517Z,98.19
2016-10-22T11:38:26.198Z,98.67
2016-10-22T11:39:36.916Z,99.34
2016-10-22T11:40:47.615Z,99.44
2016-10-22T11:41:58.323Z,98.48
2016-10-22T11:43:09.027Z,99.25
2016-10-22T11:44:19.729Z,98.86
2016-10-22T11:45:30.395Z,98.86
2016-10-22T11:46:41.102Z,98.19
2016-10-22T11:47:51.817Z,99.15
2016-10-22T11:49:02.525Z,99.73
2016-10-22T11:50:13.209Z,99.99
2016-10-22T11:51:23.941Z,99.99
2016-10-22T11:52:34.668Z,99.99
2016-10-22T11:53:45.386Z,99.99
2016-10-22T11:54:56.107Z,99.99
2016-10-22T11:56:06.815Z,99.99
2016-10-22T11:57:17.534Z,99.99
2016-10-22T11:58:28.233Z,99.99
2016-10-22T11:59:38.948Z,99.99
2016-10-22T12:00:50.177Z,99.99
2016-10-22T12:02:00.902Z,99.99
2016-10-22T12:03:11.645Z,99.99
2016-10-22T12:04:22.332Z,99.99
2016-10-22T12:05:33.660Z,99.99
2016-10-22T12:06:44.815Z,99.99
2016-10-22T12:07:56.023Z,99.99
2016-10-22T12:09:07.184Z,99.99
2016-10-22T12:10:18.330Z,99.99
2016-10-22T12:11:29.500Z,99.99
2016-10-22T12:12:40.646Z,99.99
2016-10-22T12:13:51.820Z,99.99
2016-10-22T12:15:02.951Z,99.99
2016-10-22T12:16:14.126Z,99.99
2016-10-22T12:17:25.258Z,99.99
2016-10-22T12:18:36.437Z,99.99
2016-10-22T12:19:47.585Z,99.99
2016-10-22T12:20:58.743Z,99.99
2016-10-22T12:22:09.888Z,99.99
2016-10-22T12:23:21.062Z,99.99
2016-10-22T12:24:32.201Z,99.99
2016-10-22T12:25:43.349Z,99.99
2016-10-22T12:26:54.490Z,99.99
2016-10-22T12:28:05.650Z,99.99
2016-10-22T12:29:16.843Z,99.99
2016-10-22T12:30:28.003Z,99.99
2016-10-22T12:31:39.193Z,99.99
2016-10-22T12:32:50.372Z,99.99
2016-10-22T12:34:01.532Z,99.99
2016-10-22T12:35:12.722Z,99.99
2016-10-22T12:36:24.536Z,99.3
2016-10-22T12:37:35.700Z,98.24
2016-10-22T12:38:46.893Z,97.76
2016-10-22T12:39:58.047Z,96.27
2016-10-22T12:41:09.218Z,96.17
2016-10-22T12:42:20.369Z,94.4
2016-10-22T12:43:31.531Z,93.82
2016-10-22T12:44:42.698Z,93.24
2016-10-22T12:45:53.865Z,93.53
2016-10-22T12:47:05.039Z,92.76
2016-10-22T12:48:16.212Z,92.57
2016-10-22T12:49:27.366Z,92.23
2016-10-22T12:50:38.530Z,91.56
2016-10-22T12:51:49.701Z,92.71
2016-10-22T12:53:00.863Z,91.85
2016-10-22T12:54:12.019Z,92.71
2016-10-22T12:55:23.185Z,93.34
2016-10-22T12:56:34.967Z,93.1
2016-10-22T12:57:46.168Z,93.29
2016-10-22T12:58:57.320Z,92.71
2016-10-22T13:00:08.499Z,92.71
2016-10-22T13:01:19.649Z,93.53
2016-10-22T13:02:30.808Z,94.68
2016-10-22T13:03:42.014Z,94.98
2016-10-22T13:04:53.172Z,94.21
2016-10-22T13:06:04.324Z,94.49
2016-10-22T13:07:15.515Z,92.47
2016-10-22T13:08:26.692Z,92.13
2016-10-22T13:09:37.882Z,92.13
2016-10-22T13:10:49.061Z,92.57
2016-10-22T13:12:00.407Z,92.47
2016-10-22T13:13:12.108Z,93.24
2016-10-22T13:14:23.274Z,92.76
2016-10-22T13:15:34.433Z,91.8
2016-10-22T13:16:45.654Z,91.61
2016-10-22T13:17:56.870Z,91.46
2016-10-22T13:19:08.050Z,90.21
2016-10-22T13:20:19.229Z,90.69
2016-10-22T13:21:30.428Z,90.41
2016-10-22T13:22:41.646Z,90.69
2016-10-22T13:23:52.833Z,91.42
2016-10-22T13:25:04.001Z,91.61
2016-10-22T13:26:15.209Z,91.42
2016-10-22T13:27:26.375Z,90.55
2016-10-22T13:28:37.539Z,89.78
2016-10-22T13:29:48.726Z,89.98
2016-10-22T13:30:59.862Z,89.54
2016-10-22T13:32:11.037Z,89.64
2016-10-22T13:33:22.209Z,87.76
2016-10-22T13:34:33.365Z,85.39
2016-10-22T13:35:44.527Z,84.09
2016-10-22T13:36:55.715Z,84.22
2016-10-22T13:38:06.866Z,85.14
2016-10-22T13:39:18.034Z,82.93
2016-10-22T13:40:29.176Z,83.41
2016-10-22T13:41:40.332Z,82.54
2016-10-22T13:42:51.479Z,83.99
2016-10-22T13:44:02.660Z,85.83
2016-10-22T13:45:13.842Z,86.31
2016-10-22T13:46:25.016Z,85.74
2016-10-22T13:47:36.198Z,85.44
2016-10-22T13:48:47.379Z,85.44
2016-10-22T13:49:58.544Z,85.78
2016-10-22T13:51:09.713Z,86.12
2016-10-22T13:52:20.873Z,86.41
2016-10-22T13:53:32.060Z,86.41
2016-10-22T13:54:43.234Z,86.6
2016-10-22T13:55:54.383Z,86.79
2016-10-22T13:57:05.554Z,86.99
2016-10-22T13:58:16.728Z,87.95
2016-10-22T13:59:27.959Z,87.52
2016-10-22T14:00:39.160Z,87.08
2016-10-22T14:01:50.290Z,86.6
2016-10-22T14:03:01.452Z,86.6
2016-10-22T14:04:13.161Z,84.77
2016-10-22T14:05:24.339Z,83.12
2016-10-22T14:06:35.477Z,83.41
2016-10-22T14:07:46.652Z,83.22
2016-10-22T14:08:57.816Z,82.2
2016-10-22T14:10:08.984Z,81.33
2016-10-22T14:11:20.138Z,80.27
2016-10-22T14:12:31.280Z,77.46
2016-10-22T14:13:42.441Z,75.57
2016-10-22T14:14:53.593Z,77.3
2016-10-22T14:16:04.749Z,77.94
2016-10-22T14:17:15.898Z,78.77
2016-10-22T14:18:27.071Z,79.35
2016-10-22T14:19:38.246Z,80.22
2016-10-22T14:20:49.413Z,81.37
2016-10-22T14:22:00.616Z,81.81
2016-10-22T14:23:11.838Z,81.52
2016-10-22T14:24:22.986Z,83.07
2016-10-22T14:25:34.193Z,84.66
2016-10-22T14:26:45.349Z,84.47
2016-10-22T14:27:56.554Z,83.8
2016-10-22T14:29:07.745Z,85.3
2016-10-22T14:30:18.899Z,84.81
2016-10-22T14:31:30.063Z,85.1
2016-10-22T14:32:41.260Z,83.85
2016-10-22T14:33:52.439Z,84.23
2016-10-22T14:35:03.614Z,84.91
2016-10-22T14:36:14.801Z,84.14
2016-10-22T14:37:25.953Z,83.56
2016-10-22T14:38:37.150Z,84.62
2016-10-22T14:39:48.344Z,82.74
2016-10-22T14:40:59.546Z,81.39
2016-10-22T14:42:10.706Z,80.46
2016-10-22T14:43:21.850Z,81.43
2016-10-22T14:44:32.999Z,79.69
2016-10-22T14:45:44.170Z,79.79
2016-10-22T14:46:55.341Z,80.71
2016-10-22T14:48:06.514Z,81.77
2016-10-22T14:49:17.682Z,81.48
2016-10-22T14:50:28.855Z,81.29
2016-10-22T14:51:40.008Z,80.66
2016-10-22T14:52:51.145Z,77.76
2016-10-22T14:54:02.382Z,78.96
2016-10-22T14:55:13.574Z,80.66
2016-10-22T14:56:24.737Z,80.94
2016-10-22T14:57:35.870Z,81.62
2016-10-22T14:58:47.068Z,81.48
2016-10-22T14:59:58.239Z,82.64
2016-10-22T15:01:09.418Z,83.03
2016-10-22T15:02:20.564Z,81.96
2016-10-22T15:03:31.741Z,80.94
2016-10-22T15:04:42.890Z,81.04
2016-10-22T15:05:54.059Z,81.52
2016-10-22T15:07:05.218Z,81.33
2016-10-22T15:08:16.373Z,82.01
2016-10-22T15:09:27.535Z,83.8
2016-10-22T15:10:38.694Z,83.85
2016-10-22T15:11:49.863Z,84.23
2016-10-22T15:13:01.045Z,84.33
2016-10-22T15:14:12.232Z,81.01